Pagrindinis puslapis
METAR-TAF:

METAR-TAF

Oro uostai :

Roskildė, Danija

platuma: 55-35N, ilguma: 012-08E, Aukštis: 44 m

Dabartinis oras

Ataskaita buvo paskelbta 14 minutes, ne 10:50 UTC
Vėjas 12 kt iš Pietų, svyruoja nuo Pietų/Pietryčių ir Pietų/Pietvakarių
Temperatūra 21°C
Drėgmė 49%
Slėgis 1026 hPa
Matomumas 10 km arba daugiau

METAR: EKRK 221050Z AUTO 19012KT 150V210 9999 BKN047/// 21/10 Q1026

Laikas: 13:04 (11:04 UTC)

Prognozė

Ataskaita buvo paskelbta 2 valandos ir 43 minutes, ne 08:21 UTC
Prognozė galioja nuo 22 metu 09 UTC su 22 metu 18 UTC
Vėjas 10 kt iš Pietų/Pietvakarių
Matomumas 10 km arba daugiau
Išsisklaidę debesys ne aukštis 4000 ft

TAF: EKRK 220821Z 2209/2218 20010KT 9999 SCT040

Orai ataskaitas ir orų prognozės (METAR, TAF).

turimą stotys yra geltonos ir raudonos taškus žemėlapyje.

Perkelti pele per norėdami pamatyti stoties vardą.

Tada spustelėkite, norėdami matyti oro stebėjimo ir prognozės.

Norėdami pakeisti žemėlapį: spustelėkite ant žalios mygtukų su juodo kryžiaus žemyn,; žalią mygtuką su brūkšneliu, jei norite nutolinti; arba žalių rodyklių gretimoms žemėlapius.


METAR-TAF: